Time;durP1;ratioP1;P1;durP2;ratioP2;P2;SDS_P1;SDS_P2;PMS_P1;PMS_P2;Temp;Humidity;BMP_temperature;BMP_pressure;BME280_temperature;BME280_humidity;BME280_pressure;Samples;Min_cycle;Max_cycle;Signal;HPM_P1;HPM_P2
2022/03/14 00:01:06;;;;;;;9.15;6.15;;;8.80;96.50;;;;;;5000308;28;20419;-59
2022/03/14 00:03:45;;;;;;;10.95;6.05;;;8.80;96.40;;;;;;5038182;28;20495;-59
2022/03/14 00:06:13;;;;;;;8.55;5.82;;;8.80;96.30;;;;;;5004886;28;20398;-59
2022/03/14 00:08:44;;;;;;;8.18;5.85;;;8.80;96.30;;;;;;5013744;28;20046;-59
2022/03/14 00:11:16;;;;;;;9.15;5.82;;;8.80;96.40;;;;;;5026681;28;20045;-59
2022/03/14 00:13:46;;;;;;;8.38;5.28;;;8.80;96.40;;;;;;5010683;28;20102;-59
2022/03/14 00:16:25;;;;;;;9.00;6.07;;;8.80;96.30;;;;;;5010877;28;20095;-60
2022/03/14 00:18:55;;;;;;;10.80;5.97;;;8.90;96.30;;;;;;5033096;28;20116;-59
2022/03/14 00:21:25;;;;;;;8.65;5.70;;;8.80;96.10;;;;;;5031366;28;20526;-59
2022/03/14 00:23:54;;;;;;;9.30;6.60;;;8.90;96.10;;;;;;5021419;28;20051;-59
2022/03/14 00:26:25;;;;;;;9.98;7.00;;;8.80;96.10;;;;;;5008083;28;20038;-59
2022/03/14 00:28:57;;;;;;;8.63;5.97;;;8.80;96.00;;;;;;5033061;28;20046;-59
2022/03/14 00:31:25;;;;;;;10.43;7.00;;;8.80;96.10;;;;;;5014264;28;20077;-59
2022/03/14 00:33:53;;;;;;;11.23;6.43;;;8.80;96.10;;;;;;5015021;28;20033;-60
2022/03/14 00:36:20;;;;;;;8.43;5.13;;;8.80;95.90;;;;;;5021628;28;20049;-59
2022/03/14 00:38:49;;;;;;;7.47;5.07;;;8.50;96.10;;;;;;5014534;28;20120;-59
2022/03/14 00:41:17;;;;;;;5.88;4.68;;;8.40;96.40;;;;;;5030068;28;20041;-59
2022/03/14 00:43:45;;;;;;;7.70;4.63;;;8.30;96.50;;;;;;5015160;28;20046;-59
2022/03/14 00:46:17;;;;;;;8.88;5.53;;;8.20;96.60;;;;;;5042862;28;20044;-59
2022/03/14 00:48:46;;;;;;;8.82;5.70;;;8.10;96.80;;;;;;4998478;28;20049;-59
2022/03/14 00:51:14;;;;;;;9.02;6.55;;;8.10;96.90;;;;;;5023576;28;20403;-59
2022/03/14 00:53:42;;;;;;;9.88;5.63;;;8.20;97.00;;;;;;4998450;28;20064;-60
2022/03/14 00:56:10;;;;;;;10.07;5.38;;;8.20;96.80;;;;;;4993714;28;20045;-59
2022/03/14 00:58:37;;;;;;;8.45;4.78;;;8.10;97.00;;;;;;5043490;28;20053;-59
2022/03/14 01:01:08;;;;;;;7.93;5.40;;;8.20;97.00;;;;;;5022755;28;20045;-59
2022/03/14 01:03:35;;;;;;;7.60;5.05;;;8.20;96.80;;;;;;5014588;28;20077;-59
2022/03/14 01:06:04;;;;;;;10.93;5.43;;;8.30;96.70;;;;;;5026681;28;20038;-59
2022/03/14 01:08:32;;;;;;;6.13;4.70;;;8.30;96.60;;;;;;5042593;28;20041;-60
2022/03/14 01:10:59;;;;;;;5.80;3.88;;;8.30;96.60;;;;;;5010828;28;20124;-59
2022/03/14 01:13:27;;;;;;;7.65;4.18;;;8.30;96.80;;;;;;5031945;28;20460;-59
2022/03/14 01:15:56;;;;;;;7.65;4.50;;;8.30;96.90;;;;;;5021510;28;20050;-59
2022/03/14 01:18:25;;;;;;;7.05;4.75;;;8.40;96.70;;;;;;5015876;28;20048;-59
2022/03/14 01:20:52;;;;;;;6.05;4.68;;;8.40;96.60;;;;;;5029243;28;20048;-59
2022/03/14 01:23:20;;;;;;;6.15;4.30;;;8.40;96.50;;;;;;5013780;28;20069;-59
2022/03/14 01:25:47;;;;;;;7.35;4.55;;;8.40;96.40;;;;;;5025219;28;20088;-59
2022/03/14 01:28:15;;;;;;;7.72;5.05;;;8.50;96.40;;;;;;5014610;28;20050;-59
2022/03/14 01:30:46;;;;;;;7.32;5.18;;;8.50;96.30;;;;;;5014380;28;20037;-59
2022/03/14 01:33:14;;;;;;;9.32;5.18;;;8.40;96.20;;;;;;5014599;28;20552;-59
2022/03/14 01:35:41;;;;;;;11.20;5.20;;;8.40;96.30;;;;;;5002658;28;20048;-59
2022/03/14 01:38:09;;;;;;;7.68;5.25;;;8.40;96.30;;;;;;5013825;28;20068;-59
2022/03/14 01:40:37;;;;;;;10.52;7.53;;;8.40;96.30;;;;;;5031197;28;20517;-59
2022/03/14 01:43:05;;;;;;;9.65;7.07;;;8.40;96.40;;;;;;4998222;28;20041;-59
2022/03/14 01:45:32;;;;;;;11.23;7.28;;;8.40;96.50;;;;;;5023818;28;20049;-59
2022/03/14 01:48:00;;;;;;;10.90;7.00;;;8.40;96.70;;;;;;4997985;28;20037;-59
2022/03/14 01:50:27;;;;;;;14.48;7.22;;;8.40;96.70;;;;;;5009932;28;20080;-60
2022/03/14 01:52:55;;;;;;;11.68;6.15;;;8.40;96.70;;;;;;5019652;28;20117;-59
2022/03/14 01:55:23;;;;;;;8.65;6.40;;;8.40;96.60;;;;;;5011526;28;20065;-59
2022/03/14 01:57:50;;;;;;;12.63;8.05;;;8.40;96.60;;;;;;5032027;28;20029;-59
2022/03/14 02:00:18;;;;;;;9.45;6.30;;;8.40;96.50;;;;;;4991852;28;20066;-59
2022/03/14 02:02:47;;;;;;;9.95;6.97;;;8.40;96.50;;;;;;5038098;28;20076;-59
2022/03/14 02:05:15;;;;;;;9.45;6.53;;;8.50;96.60;;;;;;5014832;28;20034;-59
2022/03/14 02:07:43;;;;;;;9.93;6.40;;;8.50;96.70;;;;;;5027411;28;20061;-59
2022/03/14 02:10:13;;;;;;;10.63;6.65;;;8.40;96.60;;;;;;5026978;28;20042;-59
2022/03/14 02:12:44;;;;;;;8.77;6.43;;;8.40;96.70;;;;;;5035360;28;20078;-59
2022/03/14 02:15:12;;;;;;;8.82;6.63;;;8.40;96.70;;;;;;5016484;28;20112;-60
2022/03/14 02:17:40;;;;;;;9.65;6.30;;;8.40;96.70;;;;;;4998464;28;20137;-59
2022/03/14 02:20:08;;;;;;;11.13;6.75;;;8.40;96.70;;;;;;5030770;28;20063;-60
2022/03/14 02:22:36;;;;;;;9.32;6.93;;;8.40;96.70;;;;;;5014191;28;20134;-59
2022/03/14 02:25:09;;;;;;;11.43;6.22;;;8.40;96.60;;;;;;5014991;28;20046;-59
2022/03/14 02:27:38;;;;;;;11.35;6.22;;;8.40;96.50;;;;;;5032891;28;20080;-59
2022/03/14 02:30:06;;;;;;;8.95;5.75;;;8.40;96.40;;;;;;5032064;28;20050;-59
2022/03/14 02:32:41;;;;;;;7.03;5.43;;;8.40;96.40;;;;;;5018674;28;20080;-59
2022/03/14 02:35:12;;;;;;;7.97;4.97;;;8.40;96.40;;;;;;5003272;28;20049;-59
2022/03/14 02:37:40;;;;;;;10.30;7.03;;;8.30;96.40;;;;;;5017379;28;20037;-59
2022/03/14 02:40:08;;;;;;;9.60;5.65;;;8.30;96.50;;;;;;5036457;28;20045;-59
2022/03/14 02:42:36;;;;;;;8.63;6.00;;;8.30;96.60;;;;;;5018553;28;20045;-58
2022/03/14 02:45:05;;;;;;;8.35;5.32;;;8.30;96.70;;;;;;5018498;28;20466;-59
2022/03/14 02:47:32;;;;;;;7.80;6.20;;;8.30;96.80;;;;;;5018455;28;20050;-58
2022/03/14 02:50:01;;;;;;;10.18;6.20;;;8.30;96.90;;;;;;5036259;28;20492;-58
2022/03/14 02:52:28;;;;;;;8.82;5.47;;;8.30;96.90;;;;;;5018605;28;20041;-58
2022/03/14 02:54:57;;;;;;;8.75;6.57;;;8.30;96.90;;;;;;5018439;28;20061;-59
2022/03/14 02:57:25;;;;;;;8.98;5.40;;;8.30;96.70;;;;;;5018410;28;20076;-58
2022/03/14 02:59:53;;;;;;;9.15;5.20;;;8.30;96.50;;;;;;5018680;28;20037;-59
2022/03/14 03:02:22;;;;;;;7.50;5.47;;;8.30;96.50;;;;;;5035810;28;20049;-59
2022/03/14 03:04:50;;;;;;;10.38;5.32;;;8.30;96.50;;;;;;5035955;28;20103;-59
2022/03/14 03:07:22;;;;;;;10.05;5.97;;;8.30;96.50;;;;;;5001822;28;20073;-59
2022/03/14 03:09:50;;;;;;;9.18;6.15;;;8.30;96.40;;;;;;5001682;28;20041;-59
2022/03/14 03:12:21;;;;;;;7.43;5.38;;;8.30;96.40;;;;;;5035554;28;20495;-59
2022/03/14 03:14:49;;;;;;;7.10;5.53;;;8.30;96.30;;;;;;5018482;28;20484;-59
2022/03/14 03:17:16;;;;;;;9.32;5.35;;;8.30;96.20;;;;;;5018113;28;20045;-59
2022/03/14 03:19:44;;;;;;;8.55;5.30;;;8.30;96.00;;;;;;5018084;28;20068;-59
2022/03/14 03:22:11;;;;;;;8.48;4.97;;;8.10;95.70;;;;;;5017976;28;20487;-59
2022/03/14 03:24:39;;;;;;;5.85;4.00;;;7.90;96.00;;;;;;5035433;28;20054;-59
2022/03/14 03:27:06;;;;;;;8.93;5.72;;;7.80;96.40;;;;;;5035439;28;20084;-58
2022/03/14 03:29:34;;;;;;;8.98;5.00;;;7.60;96.60;;;;;;5035349;28;20048;-59
2022/03/14 03:32:01;;;;;;;7.50;5.47;;;7.50;97.00;;;;;;5035482;28;20045;-59
2022/03/14 03:34:29;;;;;;;7.88;5.63;;;7.50;97.30;;;;;;5001392;28;20107;-59
2022/03/14 03:36:56;;;;;;;7.72;5.18;;;7.50;97.50;;;;;;5001350;28;20549;-59
2022/03/14 03:39:24;;;;;;;7.47;4.82;;;7.50;97.50;;;;;;5035112;28;20042;-59
2022/03/14 03:41:52;;;;;;;7.25;5.13;;;7.50;97.30;;;;;;5034788;28;20046;-59
2022/03/14 03:44:19;;;;;;;7.53;4.78;;;7.60;97.20;;;;;;5017346;28;20045;-59
2022/03/14 03:46:47;;;;;;;8.85;5.47;;;7.60;97.10;;;;;;5001080;28;20041;-59
2022/03/14 03:49:14;;;;;;;9.98;5.78;;;7.60;97.20;;;;;;5017562;28;20148;-59
2022/03/14 03:51:44;;;;;;;10.55;6.15;;;7.60;97.20;;;;;;5017782;28;20045;-59
2022/03/14 03:54:11;;;;;;;7.43;5.32;;;7.70;97.30;;;;;;5017632;28;20055;-59
2022/03/14 03:56:39;;;;;;;7.88;5.18;;;7.70;97.10;;;;;;5034966;28;20096;-59
2022/03/14 03:59:06;;;;;;;8.60;5.50;;;7.70;96.90;;;;;;5017254;28;20051;-59
2022/03/14 04:01:34;;;;;;;7.20;5.03;;;7.70;96.90;;;;;;5017117;28;20034;-59
2022/03/14 04:04:01;;;;;;;8.30;5.28;;;7.70;96.80;;;;;;5016926;28;20136;-59
2022/03/14 04:06:30;;;;;;;9.38;6.15;;;7.70;96.80;;;;;;5000788;28;20045;-59
2022/03/14 04:09:00;;;;;;;10.88;6.85;;;7.70;96.80;;;;;;5034539;28;20073;-58
2022/03/14 04:11:28;;;;;;;9.05;4.88;;;7.80;96.80;;;;;;5017043;28;20057;-59
2022/03/14 04:13:58;;;;;;;7.68;5.40;;;7.70;96.90;;;;;;5034634;28;20052;-59
2022/03/14 04:16:27;;;;;;;7.57;5.03;;;7.80;96.90;;;;;;5016861;28;20131;-59
2022/03/14 04:18:55;;;;;;;8.05;5.10;;;7.80;96.90;;;;;;5000164;28;20395;-59
2022/03/14 04:21:23;;;;;;;8.20;5.68;;;7.80;96.90;;;;;;5016738;28;20442;-59
2022/03/14 04:23:51;;;;;;;9.30;5.82;;;7.80;96.90;;;;;;5034340;28;20045;-59
2022/03/14 04:26:18;;;;;;;9.23;6.20;;;7.80;96.90;;;;;;5016797;28;20045;-59
2022/03/14 04:28:46;;;;;;;7.45;5.20;;;7.80;96.80;;;;;;5034342;28;20124;-59
2022/03/14 04:31:13;;;;;;;9.18;5.00;;;7.80;96.90;;;;;;5034090;28;20041;-59
2022/03/14 04:33:41;;;;;;;7.93;5.47;;;7.80;96.90;;;;;;5016478;28;20060;-59
2022/03/14 04:36:09;;;;;;;9.00;5.30;;;7.90;96.80;;;;;;5034183;28;20045;-59
2022/03/14 04:38:36;;;;;;;7.88;4.93;;;7.90;96.80;;;;;;5034090;28;20402;-59
2022/03/14 04:41:04;;;;;;;7.97;5.53;;;7.90;96.90;;;;;;5000386;28;20446;-59
2022/03/14 04:43:31;;;;;;;7.75;5.07;;;7.90;97.00;;;;;;5016422;28;20034;-59
2022/03/14 04:45:59;;;;;;;6.78;5.18;;;7.90;97.00;;;;;;5000274;28;20507;-59
2022/03/14 04:48:26;;;;;;;8.45;5.30;;;7.90;97.00;;;;;;5033999;28;20041;-59
2022/03/14 04:50:54;;;;;;;9.63;6.07;;;7.90;96.90;;;;;;5016526;28;20099;-59
2022/03/14 04:53:22;;;;;;;8.65;5.55;;;7.90;96.90;;;;;;4999586;28;20049;-59
2022/03/14 04:55:49;;;;;;;7.28;5.00;;;7.90;97.00;;;;;;5016196;28;20041;-60
2022/03/14 04:58:17;;;;;;;8.43;5.70;;;7.90;97.00;;;;;;5016215;28;20061;-59
2022/03/14 05:00:45;;;;;;;11.75;5.53;;;7.90;97.10;;;;;;5016150;28;20042;-59
2022/03/14 05:03:14;;;;;;;7.68;5.55;;;7.90;97.10;;;;;;5016227;28;20057;-59
2022/03/14 05:05:41;;;;;;;7.90;5.35;;;7.90;97.10;;;;;;5033808;28;20142;-59
2022/03/14 05:08:09;;;;;;;7.43;4.45;;;7.90;97.10;;;;;;5033607;28;20040;-59
2022/03/14 05:10:36;;;;;;;6.63;4.80;;;8.00;97.10;;;;;;5016173;28;20042;-59
2022/03/14 05:13:04;;;;;;;10.43;4.88;;;8.00;97.20;;;;;;5016004;28;20581;-58
2022/03/14 05:15:33;;;;;;;6.97;4.03;;;8.00;97.10;;;;;;5013772;28;20050;-59
2022/03/14 05:18:03;;;;;;;6.82;4.53;;;8.10;97.10;;;;;;5027001;28;20041;-59
2022/03/14 05:20:31;;;;;;;7.15;4.63;;;8.10;97.00;;;;;;5032558;28;20038;-59
2022/03/14 05:22:59;;;;;;;7.18;5.00;;;8.10;96.90;;;;;;5033580;28;20037;-59
2022/03/14 05:25:28;;;;;;;7.15;4.65;;;8.20;97.00;;;;;;5033385;28;20042;-59
2022/03/14 05:27:56;;;;;;;5.78;4.32;;;8.10;97.00;;;;;;5033704;28;20041;-59
2022/03/14 05:30:24;;;;;;;7.03;4.20;;;8.20;97.10;;;;;;5015959;28;20132;-59
2022/03/14 05:32:52;;;;;;;8.10;4.93;;;8.20;97.10;;;;;;5015820;28;20502;-58
2022/03/14 05:35:20;;;;;;;6.70;5.20;;;8.20;97.00;;;;;;5015732;28;20041;-59
2022/03/14 05:37:48;;;;;;;7.50;5.00;;;8.20;97.00;;;;;;5033200;28;20045;-59
2022/03/14 05:40:20;;;;;;;6.90;4.55;;;8.30;97.00;;;;;;4999635;28;20096;-59
2022/03/14 05:42:49;;;;;;;6.55;4.72;;;8.30;97.20;;;;;;5016077;28;20491;-59
2022/03/14 05:45:18;;;;;;;8.43;4.95;;;8.30;97.00;;;;;;4999380;28;20053;-60
2022/03/14 05:47:47;;;;;;;12.85;6.47;;;8.40;97.00;;;;;;5015595;28;20034;-59
2022/03/14 05:50:15;;;;;;;8.40;5.32;;;8.40;97.00;;;;;;5015697;28;20059;-60
2022/03/14 05:52:43;;;;;;;9.35;6.03;;;8.50;97.00;;;;;;5015549;28;20507;-59
2022/03/14 05:55:14;;;;;;;9.30;6.22;;;8.50;97.00;;;;;;5033406;28;20041;-58
2022/03/14 05:57:41;;;;;;;13.43;7.45;;;8.60;97.10;;;;;;5015647;28;20083;-59
2022/03/14 06:00:10;;;;;;;11.07;7.28;;;8.90;97.30;;;;;;5033154;28;20442;-59
2022/03/14 06:02:48;;;;;;;13.10;8.35;;;9.20;97.20;;;;;;5032740;28;20506;-59
2022/03/14 06:05:18;;;;;;;14.77;8.73;;;9.30;96.90;;;;;;5001864;28;20045;-59
2022/03/14 06:07:46;;;;;;;16.17;9.93;;;9.40;96.80;;;;;;5019416;28;20057;-59
2022/03/14 06:10:15;;;;;;;15.80;9.90;;;9.40;96.90;;;;;;5036717;28;20050;-59
2022/03/14 06:12:43;;;;;;;14.55;9.93;;;9.60;97.20;;;;;;5003067;28;20088;-60
2022/03/14 06:15:15;;;;;;;12.98;9.70;;;9.80;97.20;;;;;;5019069;28;20440;-60
2022/03/14 06:17:43;;;;;;;15.05;10.38;;;10.00;97.40;;;;;;5019462;28;20127;-59
2022/03/14 06:20:13;;;;;;;12.43;10.57;;;10.30;97.40;;;;;;5019065;28;20034;-60
2022/03/14 06:22:42;;;;;;;13.02;9.90;;;10.60;97.20;;;;;;5036527;28;20072;-60
2022/03/14 06:25:10;;;;;;;18.38;10.80;;;10.90;96.80;;;;;;5019071;28;20483;-60
2022/03/14 06:27:38;;;;;;;15.40;9.50;;;11.20;96.60;;;;;;4986340;28;20083;-60
2022/03/14 06:30:07;;;;;;;15.07;9.13;;;11.50;96.30;;;;;;5036338;28;20128;-59
2022/03/14 06:32:36;;;;;;;14.18;9.50;;;11.70;96.00;;;;;;5018530;28;20053;-59
2022/03/14 06:35:05;;;;;;;12.05;9.20;;;11.90;95.80;;;;;;5036229;28;20046;-60
2022/03/14 06:37:33;;;;;;;15.20;9.55;;;12.10;95.80;;;;;;5036155;28;20406;-59
2022/03/14 06:40:02;;;;;;;13.07;8.73;;;12.30;95.40;;;;;;5018753;28;20042;-59
2022/03/14 06:42:30;;;;;;;14.77;8.73;;;12.60;95.20;;;;;;5036086;28;20052;-59
2022/03/14 06:45:01;;;;;;;15.93;9.13;;;12.70;95.10;;;;;;5018695;28;20137;-59
2022/03/14 06:47:29;;;;;;;13.90;9.57;;;12.90;94.90;;;;;;5002225;28;20103;-58
2022/03/14 06:49:56;;;;;;;14.95;9.23;;;13.10;94.70;;;;;;5002078;28;20076;-59
2022/03/14 06:52:27;;;;;;;16.15;8.63;;;13.30;94.40;;;;;;5002146;28;20129;-60
2022/03/14 06:54:54;;;;;;;12.02;9.88;;;13.50;94.20;;;;;;5018266;28;20128;-59
2022/03/14 06:57:22;;;;;;;13.32;7.85;;;13.70;94.10;;;;;;5035796;28;20037;-59
2022/03/14 06:59:49;;;;;;;14.60;8.90;;;13.90;93.70;;;;;;5034668;28;20046;-59
2022/03/14 07:02:17;;;;;;;13.23;8.77;;;14.00;93.50;;;;;;5035466;28;20045;-61
2022/03/14 07:04:44;;;;;;;10.10;7.80;;;14.20;93.10;;;;;;5002027;28;20148;-59
2022/03/14 07:07:12;;;;;;;10.55;7.97;;;14.40;92.90;;;;;;5035678;28;20566;-59
2022/03/14 07:09:39;;;;;;;11.40;8.27;;;14.50;92.70;;;;;;5018270;28;20037;-60
2022/03/14 07:12:12;;;;;;;12.38;7.57;;;14.60;92.60;;;;;;5035937;28;20123;-60
2022/03/14 07:14:40;;;;;;;11.05;8.05;;;14.70;92.60;;;;;;5035645;28;20083;-60
2022/03/14 07:17:07;;;;;;;12.82;7.97;;;14.90;92.20;;;;;;5034943;28;20045;-60
2022/03/14 07:19:35;;;;;;;12.93;7.60;;;15.00;92.00;;;;;;5017957;28;20041;-60
2022/03/14 07:22:03;;;;;;;11.45;7.25;;;15.00;91.80;;;;;;5001264;28;20121;-60
2022/03/14 07:24:32;;;;;;;12.23;7.60;;;15.10;91.80;;;;;;5035630;28;20042;-60
2022/03/14 07:26:59;;;;;;;10.38;6.70;;;15.20;91.50;;;;;;5017895;28;20088;-60
2022/03/14 07:29:27;;;;;;;11.15;7.45;;;15.30;91.40;;;;;;5001556;28;20033;-60
2022/03/14 07:31:55;;;;;;;8.88;6.82;;;15.30;91.10;;;;;;5034197;28;20041;-60
2022/03/14 07:34:22;;;;;;;11.38;8.68;;;15.40;91.00;;;;;;5035256;28;20048;-60
2022/03/14 07:36:50;;;;;;;8.55;6.32;;;15.50;91.00;;;;;;5035491;28;20511;-59
2022/03/14 07:39:17;;;;;;;10.15;6.20;;;15.60;91.00;;;;;;5035379;28;20069;-59
2022/03/14 07:41:45;;;;;;;7.68;5.88;;;15.70;90.40;;;;;;5035174;28;20495;-59
2022/03/14 07:44:13;;;;;;;8.10;6.05;;;15.90;90.10;;;;;;5035140;28;20045;-59
2022/03/14 07:46:40;;;;;;;10.63;5.60;;;15.90;89.80;;;;;;5035094;28;20048;-59
2022/03/14 07:49:08;;;;;;;7.68;5.07;;;16.10;89.40;;;;;;5000897;28;20048;-60
2022/03/14 07:51:36;;;;;;;6.97;4.70;;;16.10;89.20;;;;;;5035099;28;20056;-59
2022/03/14 07:54:03;;;;;;;9.80;4.97;;;16.20;88.60;;;;;;5035033;28;20399;-59
2022/03/14 07:56:31;;;;;;;7.45;5.20;;;16.40;88.60;;;;;;5034924;28;20055;-59
2022/03/14 07:58:58;;;;;;;8.48;5.22;;;16.40;88.20;;;;;;5017366;28;20492;-59
2022/03/14 08:01:26;;;;;;;7.82;4.88;;;16.40;87.90;;;;;;5034715;28;20064;-59
2022/03/14 08:03:54;;;;;;;6.95;5.03;;;16.50;87.60;;;;;;5017271;28;20101;-59
2022/03/14 08:06:23;;;;;;;5.68;4.40;;;16.60;87.10;;;;;;5034655;28;20483;-59
2022/03/14 08:08:53;;;;;;;6.38;4.65;;;16.60;86.70;;;;;;5034583;28;20095;-59
2022/03/14 08:11:22;;;;;;;7.45;4.68;;;16.70;86.20;;;;;;5017019;28;20041;-59
2022/03/14 08:13:50;;;;;;;6.10;4.45;;;16.70;86.20;;;;;;5034568;28;20037;-59
2022/03/14 08:16:17;;;;;;;6.72;4.32;;;16.60;86.30;;;;;;5016887;28;20052;-60
2022/03/14 08:18:45;;;;;;;7.50;4.43;;;16.40;86.80;;;;;;5034397;28;20127;-59
2022/03/14 08:21:13;;;;;;;6.70;4.25;;;16.30;87.20;;;;;;5016814;28;20049;-59
2022/03/14 08:23:41;;;;;;;5.93;4.28;;;16.10;87.50;;;;;;5017052;28;20045;-58
2022/03/14 08:26:09;;;;;;;6.75;4.18;;;15.90;87.20;;;;;;5016988;28;20037;-59
2022/03/14 08:28:38;;;;;;;4.80;3.63;;;15.80;86.30;;;;;;5033253;28;20041;-59
2022/03/14 08:31:06;;;;;;;5.45;3.47;;;15.80;84.00;;;;;;5034296;28;20361;-59
2022/03/14 08:33:39;;;;;;;7.32;4.10;;;15.80;84.00;;;;;;5034559;28;20087;-59
2022/03/14 08:36:08;;;;;;;4.47;3.30;;;15.90;83.70;;;;;;5016777;28;20084;-59
2022/03/14 08:38:36;;;;;;;4.45;2.92;;;15.80;82.80;;;;;;5016719;28;20414;-59
2022/03/14 08:41:04;;;;;;;3.55;2.90;;;15.70;82.40;;;;;;5016461;28;20095;-60
2022/03/14 08:43:31;;;;;;;5.57;3.38;;;15.50;82.60;;;;;;5000121;28;20510;-59
2022/03/14 08:46:04;;;;;;;5.75;3.30;;;15.40;83.10;;;;;;5001682;28;20123;-59
2022/03/14 08:48:32;;;;;;;5.20;3.47;;;15.50;83.90;;;;;;5016326;28;20037;-59
2022/03/14 08:51:02;;;;;;;5.80;4.15;;;15.60;84.20;;;;;;5016417;28;20381;-59
2022/03/14 08:53:30;;;;;;;5.50;4.13;;;15.80;84.50;;;;;;5033935;28;20042;-59
2022/03/14 08:56:01;;;;;;;6.32;3.60;;;16.00;83.60;;;;;;5016147;28;20711;-59
2022/03/14 08:58:29;;;;;;;5.07;3.38;;;16.00;83.40;;;;;;5034005;28;20041;-60
2022/03/14 09:00:59;;;;;;;4.07;3.28;;;16.10;82.80;;;;;;4999791;28;20041;-60
2022/03/14 09:03:27;;;;;;;5.55;3.33;;;16.00;82.80;;;;;;5016157;28;20145;-59
2022/03/14 09:05:57;;;;;;;5.30;3.58;;;16.10;81.60;;;;;;5033682;28;20536;-60
2022/03/14 09:08:27;;;;;;;4.93;3.00;;;16.20;81.40;;;;;;5033565;28;20067;-60
2022/03/14 09:10:55;;;;;;;5.00;3.63;;;16.20;81.10;;;;;;5016176;28;20076;-60
2022/03/14 09:13:23;;;;;;;5.97;3.78;;;16.30;81.10;;;;;;5033850;28;20096;-60
2022/03/14 09:15:51;;;;;;;6.45;3.22;;;16.40;81.20;;;;;;5016244;28;20037;-60
2022/03/14 09:18:20;;;;;;;6.07;3.30;;;16.60;80.90;;;;;;5033618;28;20380;-60
2022/03/14 09:20:49;;;;;;;6.25;3.45;;;16.80;81.20;;;;;;5033524;28;20571;-60
2022/03/14 09:23:20;;;;;;;5.00;3.35;;;16.70;81.50;;;;;;5033672;28;20049;-60
2022/03/14 09:25:48;;;;;;;4.88;3.28;;;16.70;81.50;;;;;;4999637;28;20045;-60
2022/03/14 09:28:16;;;;;;;4.22;2.65;;;16.70;80.90;;;;;;5016064;28;20545;-60
2022/03/14 09:30:44;;;;;;;4.80;2.88;;;16.80;80.20;;;;;;5015837;28;20037;-60
2022/03/14 09:33:12;;;;;;;4.97;3.33;;;16.80;80.40;;;;;;5015790;28;20042;-60
2022/03/14 09:35:40;;;;;;;4.05;3.50;;;16.60;80.20;;;;;;5016024;28;20487;-60
2022/03/14 09:38:07;;;;;;;6.90;3.03;;;16.80;80.20;;;;;;5033310;28;20450;-57
2022/03/14 09:40:35;;;;;;;5.03;3.42;;;17.00;79.90;;;;;;5018701;28;20041;-57
2022/03/14 09:43:03;;;;;;;5.07;3.13;;;17.20;79.50;;;;;;5003633;28;20403;-59
2022/03/14 09:45:34;;;;;;;4.78;3.20;;;17.50;78.80;;;;;;5019874;28;20037;-59
2022/03/14 09:48:04;;;;;;;5.95;3.28;;;17.60;78.10;;;;;;5003327;28;20119;-59
2022/03/14 09:50:39;;;;;;;5.97;2.92;;;17.50;77.70;;;;;;5037482;28;20041;-59
2022/03/14 09:53:09;;;;;;;4.78;3.38;;;17.40;77.70;;;;;;5019616;28;20037;-59
2022/03/14 09:55:41;;;;;;;4.35;2.97;;;17.50;77.80;;;;;;5019576;28;20391;-59
2022/03/14 09:58:20;;;;;;;8.20;3.15;;;17.40;77.30;;;;;;5037110;28;20091;-60
2022/03/14 10:00:49;;;;;;;5.55;2.95;;;17.30;77.20;;;;;;5037052;28;20038;-59
2022/03/14 10:03:20;;;;;;;5.60;3.45;;;17.10;77.50;;;;;;5036853;28;20061;-58
2022/03/14 10:05:48;;;;;;;5.60;3.58;;;16.90;77.80;;;;;;5019617;28;20045;-59
2022/03/14 10:08:16;;;;;;;6.40;3.53;;;17.00;78.00;;;;;;5019467;28;20398;-59
2022/03/14 10:10:43;;;;;;;4.97;3.30;;;17.20;77.60;;;;;;5019413;28;20108;-59
2022/03/14 10:13:24;;;;;;;4.45;3.25;;;17.20;77.50;;;;;;5021122;28;20579;-59
2022/03/14 10:15:52;;;;;;;4.00;2.83;;;17.20;77.40;;;;;;5019185;28;20042;-59
2022/03/14 10:18:20;;;;;;;3.83;2.47;;;17.30;77.30;;;;;;5002752;28;20560;-58
2022/03/14 10:21:28;;;;;;;5.93;3.30;;;17.30;76.90;;;;;;5036752;28;20041;-59
2022/03/14 10:24:00;;;;;;;4.70;2.75;;;17.30;77.30;;;;;;5011690;28;20510;-59
2022/03/14 10:26:29;;;;;;;3.67;2.38;;;17.40;77.40;;;;;;5036799;28;20041;-59
2022/03/14 10:28:58;;;;;;;4.07;2.85;;;17.40;76.80;;;;;;5036596;28;20133;-59
2022/03/14 10:31:36;;;;;;;4.47;3.00;;;17.20;76.90;;;;;;5018942;28;20092;-59
2022/03/14 10:34:04;;;;;;;7.30;3.45;;;17.20;76.90;;;;;;5018932;28;20510;-59
2022/03/14 10:36:43;;;;;;;4.85;3.10;;;17.10;77.10;;;;;;5018899;28;20464;-59
2022/03/14 10:39:32;;;;;;;4.78;2.85;;;17.10;76.30;;;;;;5035144;28;20049;-58
2022/03/14 10:42:03;;;;;;;7.90;2.47;;;17.10;76.40;;;;;;5018366;28;20049;-59
2022/03/14 10:44:49;;;;;;;4.07;2.70;;;17.20;76.10;;;;;;5018671;28;20130;-59
2022/03/14 10:47:19;;;;;;;6.50;2.58;;;16.80;75.40;;;;;;5018706;28;20099;-60
2022/03/14 10:49:48;;;;;;;5.32;3.53;;;16.50;75.50;;;;;;5018500;28;20066;-59
2022/03/14 10:52:18;;;;;;;4.13;2.83;;;16.20;75.70;;;;;;5035009;28;20069;-58
2022/03/14 10:54:47;;;;;;;3.55;2.63;;;16.20;76.50;;;;;;5018761;28;20621;-59
2022/03/14 10:57:30;;;;;;;5.22;2.40;;;16.30;76.70;;;;;;5018812;28;20045;-59
2022/03/14 10:59:58;;;;;;;4.50;2.97;;;16.40;76.50;;;;;;5002424;28;20140;-58
2022/03/14 11:02:27;;;;;;;5.50;3.45;;;16.50;76.80;;;;;;5018111;28;20389;-59
2022/03/14 11:04:57;;;;;;;5.40;3.28;;;16.50;77.40;;;;;;5035889;28;20044;-59
2022/03/14 11:07:27;;;;;;;5.88;4.18;;;16.40;77.80;;;;;;5018472;28;20057;-59
2022/03/14 11:09:57;;;;;;;5.32;3.30;;;16.30;77.40;;;;;;5018092;28;20069;-59
2022/03/14 11:12:28;;;;;;;4.82;3.65;;;16.20;78.20;;;;;;5018192;28;20041;-59
2022/03/14 11:14:59;;;;;;;6.03;3.50;;;16.00;78.30;;;;;;5018367;28;20053;-59
2022/03/14 11:17:37;;;;;;;4.07;3.10;;;15.70;78.90;;;;;;5018110;28;20457;-59
2022/03/14 11:20:25;;;;;;;5.55;3.35;;;15.60;78.80;;;;;;5035712;28;20099;-59
2022/03/14 11:22:54;;;;;;;5.78;3.22;;;15.50;79.50;;;;;;5035514;28;20123;-59
2022/03/14 11:25:22;;;;;;;4.22;3.13;;;15.30;79.00;;;;;;5017404;28;20041;-59
2022/03/14 11:27:51;;;;;;;5.55;3.47;;;15.30;79.60;;;;;;5035434;28;20111;-59
2022/03/14 11:30:19;;;;;;;6.00;3.72;;;15.20;79.70;;;;;;5017986;28;20084;-59
2022/03/14 11:32:47;;;;;;;6.78;4.43;;;15.10;80.00;;;;;;5001366;28;20046;-59
2022/03/14 11:35:16;;;;;;;5.95;4.00;;;15.20;80.30;;;;;;5035316;28;20042;-60
2022/03/14 11:37:46;;;;;;;5.40;3.25;;;15.20;80.10;;;;;;5004212;28;20057;-59
2022/03/14 11:40:16;;;;;;;4.18;2.67;;;15.40;79.70;;;;;;5025511;28;20080;-60
2022/03/14 11:42:44;;;;;;;5.68;3.10;;;15.50;79.00;;;;;;5033536;28;20482;-60
2022/03/14 11:45:14;;;;;;;4.43;2.97;;;15.60;78.40;;;;;;5012139;28;20034;-60
2022/03/14 11:47:42;;;;;;;4.43;3.20;;;15.80;78.70;;;;;;4995037;28;20041;-59
2022/03/14 11:50:10;;;;;;;9.85;3.42;;;16.00;77.90;;;;;;5032847;28;20038;-59
2022/03/14 11:52:43;;;;;;;5.38;3.08;;;16.10;76.80;;;;;;5012388;28;20041;-60
2022/03/14 11:55:27;;;;;;;4.03;2.83;;;16.10;76.50;;;;;;5029589;28;20518;-59
2022/03/14 11:57:55;;;;;;;5.18;4.05;;;16.20;76.60;;;;;;5022358;28;20503;-60
2022/03/14 12:00:27;;;;;;;5.68;3.63;;;16.40;76.90;;;;;;5017382;28;20140;-59
2022/03/14 12:03:06;;;;;;;4.32;3.20;;;16.30;76.00;;;;;;5042139;28;20049;-60
2022/03/14 12:05:35;;;;;;;5.05;3.15;;;16.20;75.80;;;;;;5015027;28;20050;-60
2022/03/14 12:08:32;;;;;;;4.70;3.25;;;16.00;76.10;;;;;;5012465;28;20048;-60
2022/03/14 12:11:31;;;;;;;6.95;3.53;;;15.70;76.50;;;;;;5025729;28;20120;-60
2022/03/14 12:13:59;;;;;;;4.00;3.13;;;15.70;77.30;;;;;;5027157;28;20096;-60
2022/03/14 12:16:44;;;;;;;6.60;3.33;;;15.70;77.40;;;;;;5020808;28;20504;-59
2022/03/14 12:19:38;;;;;;;5.13;3.10;;;15.50;76.50;;;;;;5015934;28;20045;-59
2022/03/14 12:22:07;;;;;;;6.68;3.30;;;15.30;77.30;;;;;;5007301;28;20037;-59
2022/03/14 12:24:37;;;;;;;5.85;3.45;;;15.20;78.20;;;;;;5026823;28;20099;-60
2022/03/14 12:27:26;;;;;;;7.18;4.38;;;15.30;78.30;;;;;;5014754;28;20507;-59
2022/03/14 12:29:56;;;;;;;7.55;3.50;;;15.40;78.10;;;;;;5013641;28;20037;-59
2022/03/14 12:32:28;;;;;;;6.60;3.53;;;15.10;77.80;;;;;;5032307;28;20048;-60
2022/03/14 12:34:57;;;;;;;6.60;3.35;;;15.20;78.20;;;;;;5022781;28;20061;-59
2022/03/14 12:37:44;;;;;;;5.35;3.78;;;15.20;78.40;;;;;;4998984;28;20052;-60
2022/03/14 12:40:32;;;;;;;5.50;3.50;;;15.40;78.30;;;;;;4998762;28;20050;-60
2022/03/14 12:43:16;;;;;;;4.50;3.60;;;15.60;78.00;;;;;;5030190;28;20042;-60
2022/03/14 12:45:48;;;;;;;5.28;3.40;;;15.70;78.10;;;;;;5036068;28;20037;-59
2022/03/14 12:48:24;;;;;;;4.13;2.67;;;15.90;77.70;;;;;;5037469;28;20038;-60
2022/03/14 12:50:55;;;;;;;;;;;15.80;76.80;;;;;;5005606;28;20052;-60
2022/03/14 12:53:27;;;;;;;5.50;3.45;;;15.80;77.00;;;;;;5020307;28;19928;-60
2022/03/14 12:56:00;;;;;;;6.18;4.15;;;15.80;77.30;;;;;;5025574;28;20072;-60
2022/03/14 12:58:30;;;;;;;4.50;3.17;;;15.80;77.30;;;;;;5024483;28;20088;-60
2022/03/14 13:01:02;;;;;;;5.28;3.20;;;15.70;77.20;;;;;;5009888;28;20099;-60
2022/03/14 13:03:34;;;;;;;4.93;2.80;;;15.50;77.60;;;;;;5014424;28;20056;-60